Time;durP1;ratioP1;P1;durP2;ratioP2;P2;SDS_P1;SDS_P2;PMS_P1;PMS_P2;Temp;Humidity;BMP_temperature;BMP_pressure;BME280_temperature;BME280_humidity;BME280_pressure;Samples;Min_cycle;Max_cycle;Signal;HPM_P1;HPM_P2
2024/01/25 00:01:37;;;;;;;8.70;3.00;;;;;;;6.08;87.58;96379.49;108217;1284;138647;-85
2024/01/25 00:05:04;;;;;;;9.20;3.00;;;;;;;6.09;87.53;96364.58;108519;1283;23213;-86
2024/01/25 00:08:31;;;;;;;7.60;2.60;;;;;;;6.09;87.33;96378.50;108282;1282;137720;-85
2024/01/25 00:12:03;;;;;;;8.50;2.50;;;;;;;6.06;86.90;96369.67;108269;1283;22559;-86
2024/01/25 00:15:30;;;;;;;11.30;3.90;;;;;;;6.09;86.67;96355.45;108490;1276;22656;-86
2024/01/25 00:18:51;;;;;;;7.10;2.80;;;;;;;6.11;86.47;96366.29;108339;1283;138626;-86
2024/01/25 00:22:19;;;;;;;7.40;2.10;;;;;;;6.11;87.15;96379.19;108409;1283;22556;-86
2024/01/25 00:25:46;;;;;;;10.00;2.60;;;;;;;6.09;88.23;96389.91;108477;1283;137922;-86
2024/01/25 00:29:15;;;;;;;10.90;3.00;;;;;;;6.00;88.40;96387.48;108342;1281;25412;-86
2024/01/25 00:32:41;;;;;;;7.30;2.20;;;;;;;5.94;88.56;96397.23;108401;1284;22548;-86
2024/01/25 00:36:09;;;;;;;10.10;2.60;;;;;;;5.89;88.60;96404.74;108348;1278;25451;-86
2024/01/25 00:39:36;;;;;;;8.70;3.10;;;;;;;5.85;88.91;96409.78;108463;1284;22531;-86
2024/01/25 00:43:04;;;;;;;7.40;3.20;;;;;;;5.83;88.86;96415.64;108288;1284;137960;-86
2024/01/25 00:46:22;;;;;;;;;;;;;;;;;;;;;
2024/01/25 00:49:51;;;;;;;9.90;3.90;;;;;;;5.86;87.37;96420.13;108191;1284;137938;-86
2024/01/25 00:53:18;;;;;;;9.30;2.80;;;;;;;5.88;87.54;96417.05;108325;1281;22553;-86
2024/01/25 00:56:48;;;;;;;17.90;5.90;;;;;;;5.89;87.00;96411.23;108314;1283;137669;-86
2024/01/25 01:00:13;;;;;;;23.00;8.40;;;;;;;5.91;87.39;96402.48;108396;1284;22524;-86
2024/01/25 01:03:41;;;;;;;22.10;7.50;;;;;;;5.91;86.90;96409.41;108473;1284;22530;-86
2024/01/25 01:07:09;;;;;;;6.70;2.70;;;;;;;5.90;87.08;96420.11;108292;1283;138243;-87
2024/01/25 01:10:36;;;;;;;17.30;5.50;;;;;;;5.90;86.80;96414.44;108416;1284;25132;-86
2024/01/25 01:14:09;;;;;;;22.60;7.60;;;;;;;5.89;86.56;96410.20;108252;1284;137949;-86
2024/01/25 01:17:37;;;;;;;10.10;3.30;;;;;;;5.88;86.43;96414.28;108244;1278;22571;-86
2024/01/25 01:21:04;;;;;;;7.30;2.90;;;;;;;5.88;86.29;96409.12;108385;1284;22543;-86
2024/01/25 01:24:32;;;;;;;24.50;8.40;;;;;;;5.87;86.09;96404.73;108400;1281;22564;-85
2024/01/25 01:27:59;;;;;;;21.00;6.60;;;;;;;5.86;85.77;96387.34;108378;1275;22545;-86
2024/01/25 01:31:26;;;;;;;9.10;2.50;;;;;;;5.87;85.75;96384.45;108256;1281;138098;-86
2024/01/25 01:34:53;;;;;;;5.60;2.40;;;;;;;5.86;86.08;96393.33;108350;1281;22595;-86
2024/01/25 01:38:21;;;;;;;8.00;1.90;;;;;;;5.84;86.11;96411.86;108338;1283;137781;-86
2024/01/25 01:41:50;;;;;;;6.90;2.40;;;;;;;5.83;86.86;96428.73;108390;1283;25239;-86
2024/01/25 01:45:51;;;;;;;8.20;3.10;;;;;;;5.80;87.00;96419.52;104291;1276;23811;-86
2024/01/25 01:49:11;;;;;;;;;;;;;;;;;;;;;
2024/01/25 01:52:33;;;;;;;6.60;2.80;;;;;;;5.80;85.88;96426.42;108387;1278;22533;-85
2024/01/25 01:56:01;;;;;;;10.30;3.30;;;;;;;5.81;85.58;96436.45;108276;1283;136934;-86
2024/01/25 01:59:29;;;;;;;7.20;2.70;;;;;;;5.81;85.75;96430.04;108344;1283;25439;-86
2024/01/25 02:02:57;;;;;;;9.40;2.40;;;;;;;5.81;86.08;96429.45;108288;1278;138236;-86
2024/01/25 02:06:23;;;;;;;9.80;2.30;;;;;;;5.78;85.84;96430.77;108374;1284;24332;-86
2024/01/25 02:09:51;;;;;;;14.70;4.40;;;;;;;5.76;86.01;96430.91;108405;1283;22952;-86
2024/01/25 02:13:21;;;;;;;7.10;2.30;;;;;;;5.75;85.85;96430.20;108197;1282;138758;-86
2024/01/25 02:16:48;;;;;;;8.80;4.90;;;;;;;5.71;86.15;96440.23;108510;1282;22562;-86
2024/01/25 02:20:16;;;;;;;3.30;1.90;;;;;;;5.69;86.14;96444.55;108208;1283;137988;-86
2024/01/25 02:23:43;;;;;;;7.90;3.60;;;;;;;5.68;86.18;96453.52;108580;1283;24255;-86
2024/01/25 02:27:11;;;;;;;6.30;2.20;;;;;;;5.67;86.22;96441.79;108286;1282;138750;-86
2024/01/25 02:30:38;;;;;;;6.20;2.20;;;;;;;5.65;86.37;96441.81;108432;1266;22556;-86
2024/01/25 02:34:05;;;;;;;5.90;2.90;;;;;;;5.63;86.18;96439.19;108506;1282;25728;-87
2024/01/25 02:37:32;;;;;;;4.70;1.80;;;;;;;5.64;86.09;96441.71;108391;1282;136963;-86
2024/01/25 02:40:59;;;;;;;6.60;2.70;;;;;;;5.62;86.12;96449.30;108432;1275;25676;-86
2024/01/25 02:44:28;;;;;;;7.90;3.00;;;;;;;5.61;85.93;96447.49;108348;1282;138239;-86
2024/01/25 02:47:55;;;;;;;6.70;2.20;;;;;;;5.60;84.83;96437.47;108558;1279;24437;-85
2024/01/25 02:51:22;;;;;;;7.70;2.70;;;;;;;5.61;85.53;96432.70;108385;1283;137847;-85
2024/01/25 02:54:50;;;;;;;5.70;1.90;;;;;;;5.61;85.80;96445.48;108514;1281;22534;-87
2024/01/25 02:58:17;;;;;;;5.80;1.80;;;;;;;5.60;85.73;96434.39;108524;1283;22548;-87
2024/01/25 03:01:45;;;;;;;6.40;2.50;;;;;;;5.59;86.22;96443.90;108425;1282;138404;-87
2024/01/25 03:05:21;;;;;;;;;;;;;;;;;;;;;
2024/01/25 03:08:44;;;;;;;7.80;1.90;;;;;;;5.57;86.41;96453.13;108442;1276;138426;-87
2024/01/25 03:12:13;;;;;;;5.10;1.80;;;;;;;5.54;85.72;96456.98;108584;1282;22573;-87
2024/01/25 03:15:41;;;;;;;5.90;2.20;;;;;;;5.55;85.53;96454.86;108537;1281;22545;-87
2024/01/25 03:19:17;;;;;;;7.20;1.90;;;;;;;5.57;85.21;96455.48;108471;1284;22550;-87
2024/01/25 03:22:44;;;;;;;8.20;1.80;;;;;;;5.58;84.48;96467.89;108560;1284;22527;-87
2024/01/25 03:26:12;;;;;;;4.40;1.70;;;;;;;5.59;84.33;96466.97;108503;1284;23907;-87
2024/01/25 03:29:41;;;;;;;5.90;1.80;;;;;;;5.61;84.05;96459.44;108557;1283;23664;-86
2024/01/25 03:33:10;;;;;;;6.70;1.70;;;;;;;5.62;83.97;96457.61;108427;1284;137936;-87
2024/01/25 03:36:38;;;;;;;8.70;2.70;;;;;;;5.61;84.03;96461.45;108553;1283;23270;-87
2024/01/25 03:40:04;;;;;;;6.60;2.00;;;;;;;5.61;84.51;96472.81;108523;1284;23087;-87
2024/01/25 03:43:23;;;;;;;;;;;;;;;;;;;;;
2024/01/25 03:46:51;;;;;;;5.80;1.70;;;;;;;5.55;84.44;96467.02;108414;1284;24787;-86
2024/01/25 03:50:18;;;;;;;5.30;2.00;;;;;;;5.54;84.47;96468.13;108337;1282;138407;-87
2024/01/25 03:53:46;;;;;;;3.30;1.60;;;;;;;5.53;84.37;96459.96;108422;1284;22565;-87
2024/01/25 03:57:13;;;;;;;3.80;1.90;;;;;;;5.53;84.24;96466.83;108384;1283;138074;-87
2024/01/25 04:00:40;;;;;;;7.00;2.20;;;;;;;5.52;84.27;96463.86;108401;1261;22525;-87
2024/01/25 04:04:10;;;;;;;6.90;2.20;;;;;;;5.52;84.35;96461.94;108449;1281;22534;-87
2024/01/25 04:07:44;;;;;;;5.50;1.80;;;;;;;5.53;84.07;96460.88;108339;1284;137921;-87
2024/01/25 04:11:13;;;;;;;7.70;2.50;;;;;;;5.53;83.39;96456.27;108515;1284;22534;-87
2024/01/25 04:14:39;;;;;;;9.10;2.30;;;;;;;5.52;84.09;96456.03;108414;1283;137817;-86
2024/01/25 04:18:07;;;;;;;5.90;2.00;;;;;;;5.49;84.23;96455.70;108570;1281;24866;-86
2024/01/25 04:21:34;;;;;;;7.00;2.80;;;;;;;5.47;83.93;96452.52;108325;1283;136984;-87
2024/01/25 04:25:01;;;;;;;9.40;2.70;;;;;;;5.47;83.74;96458.86;108540;1282;22564;-87
2024/01/25 04:28:29;;;;;;;25.90;11.40;;;;;;;5.46;84.13;96448.10;108412;1278;22544;-87
2024/01/25 04:31:58;;;;;;;8.20;2.60;;;;;;;5.44;84.32;96455.56;108414;1283;138720;-87
2024/01/25 04:35:35;;;;;;;;;;;;;;;;;;;;;
2024/01/25 04:38:57;;;;;;;45.00;17.10;;;;;;;5.41;84.25;96447.78;108440;1283;137543;-86
2024/01/25 04:42:25;;;;;;;50.20;14.30;;;;;;;5.40;84.57;96457.66;108542;1282;22585;-86
2024/01/25 04:45:52;;;;;;;39.10;9.50;;;;;;;5.40;84.58;96453.89;108427;1283;138768;-87
2024/01/25 04:49:20;;;;;;;58.10;21.80;;;;;;;5.40;84.55;96443.23;108417;1283;22595;-87
2024/01/25 04:52:47;;;;;;;35.00;11.60;;;;;;;5.39;84.74;96446.86;108496;1283;22542;-87
2024/01/25 04:56:14;;;;;;;21.30;5.30;;;;;;;5.38;84.70;96443.55;108345;1283;138327;-86
2024/01/25 04:59:41;;;;;;;8.20;3.10;;;;;;;5.37;84.55;96445.93;108546;1283;23476;-86
2024/01/25 05:03:10;;;;;;;13.30;4.20;;;;;;;5.36;85.00;96434.80;108417;1279;138413;-87
2024/01/25 05:06:37;;;;;;;30.00;7.80;;;;;;;5.36;85.17;96437.60;108675;1282;23274;-88
2024/01/25 05:10:05;;;;;;;8.30;2.90;;;;;;;5.34;85.85;96438.62;108532;1283;136803;-86
2024/01/25 05:13:33;;;;;;;64.50;20.20;;;;;;;5.31;85.84;96439.95;108535;1282;26608;-87
2024/01/25 05:17:00;;;;;;;31.00;8.20;;;;;;;5.29;86.10;96442.92;108553;1282;22534;-87
2024/01/25 05:20:52;;;;;;;8.10;3.50;;;;;;;5.19;87.51;96449.17;108479;1283;137202;-87
2024/01/25 05:23:56;;;;;;;30.70;8.00;;;;;;;5.09;88.05;96444.27;108446;1282;22602;-87
2024/01/25 05:27:23;;;;;;;11.60;3.90;;;;;;;5.03;89.57;96466.17;108336;1282;138387;-85
2024/01/25 05:30:43;;;;;;;61.80;14.60;;;;;;;4.95;90.61;96457.34;108440;1282;26579;-86
2024/01/25 05:34:10;;;;;;;23.50;5.80;;;;;;;4.90;90.77;96463.17;108524;1282;138496;-86
2024/01/25 05:37:38;;;;;;;9.80;3.40;;;;;;;4.84;91.18;96454.95;108505;1282;22556;-86
2024/01/25 05:40:58;;;;;;;52.20;17.60;;;;;;;4.76;92.54;96454.17;108465;1283;22584;-86
2024/01/25 05:44:25;;;;;;;14.70;4.20;;;;;;;4.70;92.25;96439.55;108448;1280;138399;-83
2024/01/25 05:47:53;;;;;;;9.60;2.30;;;;;;;4.68;92.46;96440.84;108458;1282;22566;-86
2024/01/25 05:51:20;;;;;;;11.40;3.10;;;;;;;4.68;92.65;96447.31;108290;1283;137904;-85
2024/01/25 05:54:50;;;;;;;23.70;8.00;;;;;;;4.67;92.86;96446.44;108536;1282;22564;-85
2024/01/25 05:58:18;;;;;;;7.60;2.70;;;;;;;4.66;92.91;96435.14;108214;1277;136988;-86
2024/01/25 06:01:46;;;;;;;17.30;4.00;;;;;;;4.64;93.07;96432.98;108464;1282;24306;-85
2024/01/25 06:05:13;;;;;;;13.40;4.20;;;;;;;4.61;93.52;96420.86;108453;1283;23093;-85
2024/01/25 06:08:43;;;;;;;36.70;13.60;;;;;;;4.57;93.58;96419.55;108316;1265;138809;-85
2024/01/25 06:12:13;;;;;;;59.00;13.70;;;;;;;4.57;92.32;96419.86;108424;1283;22525;-85
2024/01/25 06:15:41;;;;;;;32.20;7.70;;;;;;;4.61;92.51;96408.92;108140;1284;138191;-86
2024/01/25 06:19:09;;;;;;;38.90;12.30;;;;;;;4.62;92.48;96398.33;108427;1284;22531;-85
2024/01/25 06:22:36;;;;;;;16.20;5.10;;;;;;;4.65;91.65;96388.09;108319;1284;22601;-85
2024/01/25 06:26:04;;;;;;;26.00;5.70;;;;;;;4.65;91.77;96386.48;108351;1284;22546;-85
2024/01/25 06:29:31;;;;;;;52.50;19.40;;;;;;;4.67;91.24;96388.17;108347;1284;22620;-86
2024/01/25 06:32:58;;;;;;;16.80;6.10;;;;;;;4.70;91.05;96381.05;108355;1284;138283;-86
2024/01/25 06:36:26;;;;;;;20.90;5.70;;;;;;;4.72;91.04;96385.52;108498;1283;23143;-85
2024/01/25 06:39:54;;;;;;;33.50;9.50;;;;;;;4.75;90.56;96384.58;108262;1284;138073;-85
2024/01/25 06:43:20;;;;;;;22.20;7.20;;;;;;;4.77;90.55;96391.89;108353;1284;22500;-86
2024/01/25 06:46:48;;;;;;;13.30;4.20;;;;;;;4.79;89.97;96397.84;108329;1284;22761;-85
2024/01/25 06:50:15;;;;;;;9.00;3.40;;;;;;;4.82;89.65;96391.23;108311;1284;22637;-85
2024/01/25 06:53:42;;;;;;;10.10;2.40;;;;;;;4.86;89.23;96405.29;108348;1284;22543;-86
2024/01/25 06:57:09;;;;;;;24.20;7.30;;;;;;;4.89;88.83;96404.83;108343;1276;22529;-85
2024/01/25 07:00:38;;;;;;;11.20;2.90;;;;;;;4.93;88.44;96412.01;108394;1283;22573;-85
2024/01/25 07:04:04;;;;;;;9.40;3.40;;;;;;;4.96;88.07;96406.73;108245;1284;138029;-86
2024/01/25 07:07:32;;;;;;;7.60;2.30;;;;;;;4.98;87.49;96419.61;108428;1271;22554;-85
2024/01/25 07:10:44;;;;;;;11.90;7.20;;;;;;;4.99;88.17;96406.52;108301;1284;23450;-85
2024/01/25 07:14:12;;;;;;;15.90;4.50;;;;;;;5.00;87.71;96398.96;108514;1282;22582;-86
2024/01/25 07:17:39;;;;;;;10.40;3.70;;;;;;;5.01;87.90;96419.28;108392;1283;25452;-86
2024/01/25 07:21:06;;;;;;;16.30;8.10;;;;;;;5.01;87.77;96414.13;108398;1277;22635;-85
2024/01/25 07:24:34;;;;;;;17.80;6.20;;;;;;;5.00;88.30;96431.58;108387;1283;23026;-85
2024/01/25 07:28:01;;;;;;;15.40;4.60;;;;;;;4.97;89.32;96433.29;108320;1283;137994;-86
2024/01/25 07:31:29;;;;;;;10.80;2.70;;;;;;;4.92;89.84;96427.93;108393;1277;22581;-85
2024/01/25 07:34:58;;;;;;;13.40;5.10;;;;;;;4.83;90.52;96440.41;108330;1283;138671;-85
2024/01/25 07:38:25;;;;;;;15.00;5.70;;;;;;;4.79;91.07;96439.27;108415;1283;22569;-85
2024/01/25 07:41:53;;;;;;;8.60;2.70;;;;;;;4.75;91.65;96455.77;108402;1280;22571;-85
2024/01/25 07:48:41;;;;;;;7.30;2.50;;;;;;;4.64;92.58;96461.81;108330;1284;22537;-86
2024/01/25 07:52:15;;;;;;;9.10;2.80;;;;;;;4.58;93.46;96462.17;108449;1283;138039;-86
2024/01/25 07:55:42;;;;;;;8.20;2.70;;;;;;;4.52;93.68;96465.81;108493;1283;22745;-86
2024/01/25 07:59:12;;;;;;;8.40;2.60;;;;;;;4.47;94.32;96472.16;108425;1283;138175;-86
2024/01/25 08:02:41;;;;;;;8.30;2.80;;;;;;;4.40;94.50;96470.67;108288;1284;22777;-86
2024/01/25 08:06:07;;;;;;;10.30;3.20;;;;;;;4.38;94.91;96492.70;108347;1283;25442;-86
2024/01/25 08:09:34;;;;;;;10.20;3.90;;;;;;;4.37;95.21;96508.38;108369;1281;138223;-86
2024/01/25 08:13:01;;;;;;;8.50;2.90;;;;;;;4.31;96.06;96505.02;108345;1284;22579;-85
2024/01/25 08:16:30;;;;;;;10.90;3.80;;;;;;;4.20;97.06;96488.95;108443;1283;137812;-86
2024/01/25 08:19:50;;;;;;;9.40;3.60;;;;;;;4.12;97.09;96504.13;108430;1283;22620;-86
2024/01/25 08:23:09;;;;;;;;;;;;;;;;;;;;;
2024/01/25 08:26:38;;;;;;;6.10;2.30;;;;;;;4.07;98.56;96514.56;108564;1283;23755;-87
2024/01/25 08:30:07;;;;;;;7.70;2.90;;;;;;;4.03;99.06;96529.95;108552;1283;22624;-87
2024/01/25 08:33:35;;;;;;;7.10;2.30;;;;;;;3.98;99.92;96538.52;108341;1276;138066;-86
2024/01/25 08:37:03;;;;;;;6.40;2.30;;;;;;;3.92;99.95;96527.89;108484;1281;23289;-87
2024/01/25 08:40:30;;;;;;;7.60;3.00;;;;;;;3.86;100.00;96522.61;108386;1283;137866;-87
2024/01/25 08:43:57;;;;;;;11.40;4.20;;;;;;;3.80;100.00;96517.13;108551;1282;22748;-87
2024/01/25 08:47:10;;;;;;;8.50;3.30;;;;;;;3.79;100.00;96519.44;108399;1283;138082;-87
2024/01/25 08:50:37;;;;;;;9.20;2.30;;;;;;;3.80;100.00;96521.38;108529;1282;22557;-87
2024/01/25 08:54:05;;;;;;;9.70;3.10;;;;;;;3.84;100.00;96522.59;108474;1276;23370;-87
2024/01/25 08:57:32;;;;;;;11.50;4.60;;;;;;;3.87;100.00;96523.98;108511;1276;138670;-86
2024/01/25 09:00:59;;;;;;;12.70;4.10;;;;;;;3.89;100.00;96529.52;108527;1283;22486;-87
2024/01/25 09:04:43;;;;;;;13.10;4.60;;;;;;;3.91;100.00;96525.89;108387;1283;138138;-87
2024/01/25 09:07:54;;;;;;;19.10;9.50;;;;;;;3.96;100.00;96526.70;108388;1283;22568;-87
2024/01/25 09:11:21;;;;;;;16.80;6.90;;;;;;;3.99;100.00;96525.50;108273;1283;138480;-87
2024/01/25 09:14:52;;;;;;;11.90;6.30;;;;;;;4.01;100.00;96520.86;108482;1282;24182;-87
2024/01/25 09:18:20;;;;;;;11.20;5.50;;;;;;;4.04;99.85;96516.17;108553;1282;22571;-87
2024/01/25 09:21:47;;;;;;;7.50;4.80;;;;;;;4.08;99.54;96519.73;108388;1283;138810;-86
2024/01/25 09:25:15;;;;;;;9.30;4.70;;;;;;;4.13;98.75;96525.10;108508;1281;22686;-86
2024/01/25 09:28:41;;;;;;;9.40;3.80;;;;;;;4.15;98.87;96524.90;108430;1260;137783;-87
2024/01/25 09:32:10;;;;;;;8.20;4.00;;;;;;;4.19;97.77;96527.30;108580;1282;22595;-87
2024/01/25 09:35:37;;;;;;;8.50;3.10;;;;;;;4.21;97.76;96527.61;108407;1282;138266;-87
2024/01/25 09:39:04;;;;;;;11.10;3.80;;;;;;;4.23;97.04;96528.66;108493;1278;26938;-87
2024/01/25 09:42:32;;;;;;;9.30;3.10;;;;;;;4.28;96.00;96534.61;108576;1275;24010;-87
2024/01/25 09:45:59;;;;;;;7.90;3.30;;;;;;;4.31;95.69;96543.05;108319;1282;138084;-88
2024/01/25 09:49:26;;;;;;;9.90;2.70;;;;;;;4.36;95.39;96546.84;108478;1283;22632;-87
2024/01/25 09:56:15;;;;;;;10.30;4.10;;;;;;;4.49;92.83;96542.94;108523;1278;22574;-87
2024/01/25 09:59:42;;;;;;;9.00;4.00;;;;;;;4.55;92.20;96538.83;108419;1280;137941;-86
2024/01/25 10:03:18;;;;;;;11.40;3.20;;;;;;;4.61;90.83;96545.84;108468;1283;22737;-87
2024/01/25 10:06:46;;;;;;;12.40;3.30;;;;;;;4.65;89.65;96555.67;108505;1283;22563;-87
2024/01/25 10:10:21;;;;;;;10.20;2.90;;;;;;;4.68;90.54;96549.10;108399;1282;137375;-87
2024/01/25 10:13:48;;;;;;;8.20;3.40;;;;;;;4.69;90.43;96551.86;108441;1283;22591;-87
2024/01/25 10:17:17;;;;;;;7.90;2.70;;;;;;;4.76;89.28;96547.98;108600;1281;137796;-87
2024/01/25 10:20:44;;;;;;;9.40;2.90;;;;;;;4.79;88.34;96551.98;108623;1283;22667;-87
2024/01/25 10:24:13;;;;;;;11.70;3.70;;;;;;;4.81;88.83;96558.46;108590;1282;24852;-87
2024/01/25 10:27:42;;;;;;;7.80;2.80;;;;;;;4.82;88.45;96555.31;108602;1282;22533;-86
2024/01/25 10:31:08;;;;;;;11.30;4.10;;;;;;;4.83;88.11;96555.77;108542;1282;22543;-87
2024/01/25 10:34:36;;;;;;;11.90;3.80;;;;;;;4.86;88.35;96564.46;108720;1278;22596;-87
2024/01/25 10:38:10;;;;;;;7.90;3.00;;;;;;;4.88;87.60;96558.11;108547;1276;22562;-87
2024/01/25 10:41:17;;;;;;;;;;;;;;;4.89;87.35;96559.67;108474;1282;137458;-87
2024/01/25 10:44:45;;;;;;;10.00;3.30;;;;;;;4.92;88.19;96565.42;108646;1282;22527;-87
2024/01/25 10:48:11;;;;;;;13.60;5.30;;;;;;;4.94;88.31;96570.05;108489;1276;22539;-87
2024/01/25 10:52:00;;;;;;;9.60;4.20;;;;;;;4.93;86.76;96563.60;108474;1282;25280;-87
2024/01/25 10:55:09;;;;;;;7.80;2.90;;;;;;;4.91;87.25;96581.80;108488;1283;22584;-88
2024/01/25 10:58:36;;;;;;;8.80;3.30;;;;;;;4.93;86.21;96585.05;108486;1276;137911;-87
2024/01/25 11:02:03;;;;;;;9.80;3.30;;;;;;;4.97;85.61;96596.48;108445;1282;22541;-87
2024/01/25 11:05:37;;;;;;;11.40;2.70;;;;;;;5.01;84.42;96598.90;108269;1284;137941;-87
2024/01/25 11:09:05;;;;;;;8.00;2.80;;;;;;;5.01;85.29;96594.75;108379;1282;22808;-87
2024/01/25 11:12:31;;;;;;;9.20;2.70;;;;;;;5.01;86.05;96601.61;108539;1282;22534;-87
2024/01/25 11:15:59;;;;;;;9.10;2.50;;;;;;;5.02;85.95;96605.02;108387;1283;137964;-87
2024/01/25 11:19:32;;;;;;;9.10;2.10;;;;;;;5.03;85.76;96610.23;108524;1282;25326;-87
2024/01/25 11:23:06;;;;;;;7.30;2.30;;;;;;;5.03;85.44;96606.30;108310;1282;136034;-87
2024/01/25 11:26:07;;;;;;;;;;;;;;;5.00;85.26;96602.73;108436;1275;22526;-87
2024/01/25 11:29:33;;;;;;;8.00;2.40;;;;;;;5.00;85.09;96606.91;108557;1283;124378;-88
2024/01/25 11:33:01;;;;;;;8.70;3.00;;;;;;;5.00;84.42;96611.65;108492;1282;22556;-87
2024/01/25 11:36:35;;;;;;;10.00;2.70;;;;;;;4.98;84.83;96612.06;108587;1282;25276;-87
2024/01/25 11:39:42;;;;;;;;;;;;;;;4.95;85.54;96627.07;108546;1276;22566;-87
2024/01/25 11:43:10;;;;;;;9.30;3.70;;;;;;;4.95;85.90;96629.02;108641;1282;22563;-87
2024/01/25 11:46:37;;;;;;;7.40;2.60;;;;;;;4.95;86.59;96633.96;108323;1283;138749;-87
2024/01/25 11:50:31;;;;;;;9.10;3.60;;;;;;;4.95;86.72;96635.36;108503;1282;22697;-87
2024/01/25 11:53:19;;;;;;;8.50;3.50;;;;;;;4.92;86.71;96626.71;108262;1276;137150;-87
2024/01/25 11:56:46;;;;;;;9.10;2.80;;;;;;;4.92;86.98;96635.63;108668;1280;23966;-86
2024/01/25 12:00:12;;;;;;;;;;;;;;;;;;;;;
2024/01/25 12:03:42;;;;;;;11.60;3.20;;;;;;;4.91;86.63;96645.46;108498;1282;22580;-87
2024/01/25 12:07:10;;;;;;;7.70;2.40;;;;;;;4.90;86.85;96648.73;108537;1280;22533;-87
2024/01/25 12:10:38;;;;;;;8.80;3.10;;;;;;;4.87;87.59;96637.25;108525;1282;23312;-87
2024/01/25 12:14:09;;;;;;;17.50;7.40;;;;;;;4.87;87.42;96643.51;108467;1283;24389;-87
2024/01/25 12:17:38;;;;;;;17.10;7.80;;;;;;;4.87;86.67;96643.45;108462;1282;137630;-87
2024/01/25 12:21:03;;;;;;;24.70;10.90;;;;;;;4.86;86.73;96642.38;108489;1279;23120;-87
2024/01/25 12:24:36;;;;;;;13.40;5.00;;;;;;;4.83;86.69;96637.29;108437;1282;137895;-87
2024/01/25 12:28:04;;;;;;;8.20;3.60;;;;;;;4.84;85.84;96635.11;108497;1276;26638;-87
2024/01/25 12:31:31;;;;;;;11.60;3.00;;;;;;;4.82;86.06;96644.94;108510;1282;26458;-86
2024/01/25 12:34:58;;;;;;;11.10;3.50;;;;;;;4.80;86.65;96646.46;108440;1283;138302;-87
2024/01/25 12:38:36;;;;;;;11.80;4.00;;;;;;;4.81;86.63;96643.15;108576;1282;24720;-87
2024/01/25 12:42:04;;;;;;;10.70;3.70;;;;;;;4.79;86.58;96643.30;108379;1283;138733;-87
2024/01/25 12:45:31;;;;;;;11.30;4.00;;;;;;;4.76;86.18;96645.96;108591;1277;22737;-87
2024/01/25 12:48:59;;;;;;;5.80;3.50;;;;;;;4.77;86.42;96649.70;108521;1277;25953;-87
2024/01/25 12:52:26;;;;;;;6.50;2.70;;;;;;;4.80;86.23;96648.90;108475;1275;22614;-86
2024/01/25 12:55:53;;;;;;;9.30;3.20;;;;;;;4.82;85.55;96645.80;108698;1283;22591;-87
2024/01/25 12:59:22;;;;;;;7.50;3.00;;;;;;;4.84;85.25;96640.79;108363;1283;136183;-87
2024/01/25 13:02:49;;;;;;;6.00;2.50;;;;;;;4.85;85.47;96640.73;108449;1273;23147;-87
2024/01/25 13:06:17;;;;;;;9.60;3.70;;;;;;;4.87;85.75;96637.27;108355;1283;138251;-87
2024/01/25 13:09:45;;;;;;;5.80;2.90;;;;;;;4.88;85.22;96640.98;108542;1277;22639;-87
2024/01/25 13:13:14;;;;;;;14.40;3.60;;;;;;;4.88;85.47;96645.58;108549;1282;23645;-87
2024/01/25 13:16:47;;;;;;;8.70;2.50;;;;;;;4.87;85.33;96640.49;108490;1275;22536;-87
2024/01/25 13:20:15;;;;;;;8.20;2.50;;;;;;;4.89;85.80;96653.61;108588;1280;22604;-87
2024/01/25 13:23:43;;;;;;;6.50;2.40;;;;;;;4.90;85.21;96644.23;108370;1278;137522;-86
2024/01/25 13:27:10;;;;;;;8.00;3.20;;;;;;;4.91;85.72;96655.14;108657;1275;30315;-87
2024/01/25 13:30:39;;;;;;;9.00;2.40;;;;;;;4.88;86.84;96675.13;108448;1275;137543;-87
2024/01/25 13:34:07;;;;;;;6.10;2.00;;;;;;;4.78;89.70;96682.40;108641;1278;22660;-87
2024/01/25 13:37:35;;;;;;;8.20;3.10;;;;;;;4.63;91.28;96679.77;108426;1280;22556;-85
2024/01/25 13:41:03;;;;;;;10.30;3.00;;;;;;;4.54;92.70;96695.67;108367;1275;138029;-85
2024/01/25 13:44:31;;;;;;;5.00;2.40;;;;;;;4.46;93.26;96692.59;104491;1282;5412757;-85
2024/01/25 13:47:58;;;;;;;6.60;2.80;;;;;;;4.42;95.46;96679.42;108323;1283;137508;-85
2024/01/25 13:51:25;;;;;;;8.60;3.50;;;;;;;4.37;93.97;96691.34;108469;1278;22529;-85
2024/01/25 13:54:54;;;;;;;8.80;2.80;;;;;;;4.38;93.56;96699.80;108342;1283;138088;-85
2024/01/25 13:58:20;;;;;;;8.60;2.70;;;;;;;4.42;92.45;96697.94;108367;1277;22571;-85
2024/01/25 14:01:47;;;;;;;5.90;3.20;;;;;;;4.46;92.12;96697.96;108426;1283;24221;-84
2024/01/25 14:05:14;;;;;;;16.20;5.00;;;;;;;4.48;92.39;96691.59;108359;1278;137232;-85
2024/01/25 14:08:42;;;;;;;27.70;12.30;;;;;;;4.47;92.48;96693.57;108450;1275;22621;-85
2024/01/25 14:12:09;;;;;;;11.10;4.80;;;;;;;4.47;92.74;96700.39;108436;1283;138222;-85
2024/01/25 14:15:39;;;;;;;11.80;4.30;;;;;;;4.48;92.79;96706.70;108637;1278;22749;-85
2024/01/25 14:19:06;;;;;;;11.40;4.10;;;;;;;4.51;92.42;96705.38;108251;1283;137541;-85
2024/01/25 14:22:33;;;;;;;11.30;5.60;;;;;;;4.53;92.45;96704.14;108415;1275;22523;-85
2024/01/25 14:26:00;;;;;;;15.10;6.70;;;;;;;4.53;92.44;96705.66;108406;1283;22582;-85
2024/01/25 14:29:37;;;;;;;;;;;;;;;;;;;;;
2024/01/25 14:33:11;;;;;;;;;;;;;;;;;;;;;
2024/01/25 14:36:53;;;;;;;10.10;4.80;;;;;;;4.51;92.39;96712.22;108301;1278;137697;-84
2024/01/25 14:40:14;;;;;;;11.20;5.50;;;;;;;4.52;92.31;96709.70;108396;1283;22570;-85
2024/01/25 14:43:44;;;;;;;8.60;5.20;;;;;;;4.54;92.13;96714.55;108503;1283;22581;-85
2024/01/25 14:47:13;;;;;;;13.00;4.60;;;;;;;4.55;91.80;96715.55;108298;1283;22579;-84
2024/01/25 14:50:39;;;;;;;12.00;3.90;;;;;;;4.56;91.24;96714.62;108484;1283;22530;-84
2024/01/25 14:54:08;;;;;;;11.30;3.90;;;;;;;4.57;91.54;96719.98;108411;1282;138258;-85
2024/01/25 14:57:40;;;;;;;10.00;3.60;;;;;;;4.58;90.90;96725.19;108455;1280;24012;-85
2024/01/25 15:01:42;;;;;;;9.80;3.60;;;;;;;4.61;90.00;96722.22;108193;1283;137635;-85
2024/01/25 15:04:45;;;;;;;11.50;3.60;;;;;;;4.60;90.33;96721.60;108433;1283;22557;-85
2024/01/25 15:08:13;;;;;;;12.30;5.10;;;;;;;4.59;89.62;96720.83;108494;1283;22587;-85
2024/01/25 15:11:42;;;;;;;10.80;4.70;;;;;;;4.60;89.26;96721.77;108348;1283;138222;-84
2024/01/25 15:15:14;;;;;;;13.10;5.90;;;;;;;4.62;89.72;96725.91;108403;1283;23445;-85
2024/01/25 15:18:41;;;;;;;14.10;5.60;;;;;;;4.62;89.76;96728.48;108449;1259;137212;-85
2024/01/25 15:22:27;;;;;;;;;;;;;;;;;;;;;
2024/01/25 15:25:50;;;;;;;10.20;3.80;;;;;;;4.63;89.31;96738.26;108417;1278;137730;-85
2024/01/25 15:29:18;;;;;;;7.80;3.50;;;;;;;4.63;88.95;96752.02;108425;1280;23271;-84
2024/01/25 15:32:56;;;;;;;;;;;;;;;;;;;;;
2024/01/25 15:36:20;;;;;;;14.30;5.50;;;;;;;4.62;89.37;96757.13;108483;1283;22668;-85
2024/01/25 15:39:49;;;;;;;15.30;5.20;;;;;;;4.62;89.39;96765.30;108453;1283;22623;-85
2024/01/25 15:43:16;;;;;;;12.10;4.00;;;;;;;4.64;89.72;96764.63;108166;1283;138180;-85
2024/01/25 15:46:44;;;;;;;10.10;5.40;;;;;;;4.60;90.06;96768.91;108466;1283;22619;-85
2024/01/25 15:50:10;;;;;;;11.00;4.60;;;;;;;4.57;90.14;96781.56;108411;1283;24211;-85
2024/01/25 15:53:38;;;;;;;12.80;5.40;;;;;;;4.58;89.77;96777.88;108381;1283;22520;-85
2024/01/25 15:57:08;;;;;;;9.10;4.70;;;;;;;4.57;89.42;96782.40;108486;1282;22616;-85
2024/01/25 16:00:34;;;;;;;12.40;5.00;;;;;;;4.57;89.85;96778.50;108415;1275;26462;-85
2024/01/25 16:04:00;;;;;;;13.20;4.30;;;;;;;4.56;89.40;96784.58;108546;1283;22566;-85
2024/01/25 16:07:10;;;;;;;15.30;5.60;;;;;;;4.56;88.67;96780.11;108451;1278;137777;-85
2024/01/25 16:10:38;;;;;;;13.60;5.10;;;;;;;4.57;88.66;96791.52;108578;1279;22893;-84
2024/01/25 16:14:06;;;;;;;9.00;4.70;;;;;;;4.60;88.59;96799.15;108467;1283;138027;-85
2024/01/25 16:17:34;;;;;;;12.20;4.90;;;;;;;4.61;88.08;96798.58;108449;1278;22580;-85
2024/01/25 16:21:01;;;;;;;14.20;5.00;;;;;;;4.61;88.00;96801.28;108413;1278;22550;-84
2024/01/25 16:27:56;;;;;;;46.00;18.20;;;;;;;4.62;87.70;96810.06;108348;1283;22579;-85
2024/01/25 16:31:23;;;;;;;26.20;10.20;;;;;;;4.61;87.14;96817.10;108338;1283;137881;-85
2024/01/25 16:34:54;;;;;;;20.20;9.10;;;;;;;4.59;87.56;96816.24;108418;1278;25580;-85
2024/01/25 16:38:21;;;;;;;21.60;10.20;;;;;;;4.58;87.55;96821.66;108290;1279;138039;-85